sensor_id;sensor_type;location;lat;lon;timestamp;temperature;humidity
14172;DHT22;7165;52.388;4.928;2023-08-06T00:00:51;15.60;99.90
14172;DHT22;7165;52.388;4.928;2023-08-06T00:03:18;15.60;99.90
14172;DHT22;7165;52.388;4.928;2023-08-06T00:05:45;15.60;99.90
14172;DHT22;7165;52.388;4.928;2023-08-06T00:08:11;15.60;99.90
14172;DHT22;7165;52.388;4.928;2023-08-06T00:10:39;15.60;99.90
14172;DHT22;7165;52.388;4.928;2023-08-06T00:13:07;15.60;99.90
14172;DHT22;7165;52.388;4.928;2023-08-06T00:15:34;15.60;99.90
14172;DHT22;7165;52.388;4.928;2023-08-06T00:18:01;15.60;99.90
14172;DHT22;7165;52.388;4.928;2023-08-06T00:20:27;15.60;99.90
14172;DHT22;7165;52.388;4.928;2023-08-06T00:22:54;15.60;99.90
14172;DHT22;7165;52.388;4.928;2023-08-06T00:25:21;15.60;99.90
14172;DHT22;7165;52.388;4.928;2023-08-06T00:27:47;15.60;99.90
14172;DHT22;7165;52.388;4.928;2023-08-06T00:30:16;15.60;99.90
14172;DHT22;7165;52.388;4.928;2023-08-06T00:32:42;15.60;99.90
14172;DHT22;7165;52.388;4.928;2023-08-06T00:35:10;15.60;99.90
14172;DHT22;7165;52.388;4.928;2023-08-06T00:37:38;15.60;99.90
14172;DHT22;7165;52.388;4.928;2023-08-06T00:40:06;15.60;99.90
14172;DHT22;7165;52.388;4.928;2023-08-06T00:42:33;15.60;99.90
14172;DHT22;7165;52.388;4.928;2023-08-06T00:45:01;15.60;99.90
14172;DHT22;7165;52.388;4.928;2023-08-06T00:47:29;15.60;99.90
14172;DHT22;7165;52.388;4.928;2023-08-06T00:49:57;15.60;99.90
14172;DHT22;7165;52.388;4.928;2023-08-06T00:52:23;15.60;99.90
14172;DHT22;7165;52.388;4.928;2023-08-06T00:54:50;15.60;99.90
14172;DHT22;7165;52.388;4.928;2023-08-06T00:57:17;15.60;99.90
14172;DHT22;7165;52.388;4.928;2023-08-06T00:59:44;15.60;99.90
14172;DHT22;7165;52.388;4.928;2023-08-06T01:02:11;15.60;99.90
14172;DHT22;7165;52.388;4.928;2023-08-06T01:04:39;15.60;99.90
14172;DHT22;7165;52.388;4.928;2023-08-06T01:07:08;15.60;99.90
14172;DHT22;7165;52.388;4.928;2023-08-06T01:09:42;15.50;99.90
14172;DHT22;7165;52.388;4.928;2023-08-06T01:12:15;15.60;99.90
14172;DHT22;7165;52.388;4.928;2023-08-06T01:14:45;15.50;99.90
14172;DHT22;7165;52.388;4.928;2023-08-06T01:17:14;15.50;99.90
14172;DHT22;7165;52.388;4.928;2023-08-06T01:19:42;15.50;99.90
14172;DHT22;7165;52.388;4.928;2023-08-06T01:22:10;15.50;99.90
14172;DHT22;7165;52.388;4.928;2023-08-06T01:24:42;15.50;99.90
14172;DHT22;7165;52.388;4.928;2023-08-06T01:27:11;15.60;99.90
14172;DHT22;7165;52.388;4.928;2023-08-06T01:29:41;15.60;99.90
14172;DHT22;7165;52.388;4.928;2023-08-06T01:32:10;15.60;99.90
14172;DHT22;7165;52.388;4.928;2023-08-06T01:34:38;15.60;99.90
14172;DHT22;7165;52.388;4.928;2023-08-06T01:37:06;15.60;99.90
14172;DHT22;7165;52.388;4.928;2023-08-06T01:39:34;15.60;99.90
14172;DHT22;7165;52.388;4.928;2023-08-06T01:42:01;15.60;99.90
14172;DHT22;7165;52.388;4.928;2023-08-06T01:44:28;15.50;99.90
14172;DHT22;7165;52.388;4.928;2023-08-06T01:46:55;15.50;99.90
14172;DHT22;7165;52.388;4.928;2023-08-06T01:49:22;15.50;99.90
14172;DHT22;7165;52.388;4.928;2023-08-06T01:51:48;15.50;99.90
14172;DHT22;7165;52.388;4.928;2023-08-06T01:54:15;15.50;99.90
14172;DHT22;7165;52.388;4.928;2023-08-06T01:56:43;15.50;99.90
14172;DHT22;7165;52.388;4.928;2023-08-06T01:59:10;15.50;99.90
14172;DHT22;7165;52.388;4.928;2023-08-06T02:01:36;15.50;99.90
14172;DHT22;7165;52.388;4.928;2023-08-06T02:04:03;15.50;99.90
14172;DHT22;7165;52.388;4.928;2023-08-06T02:06:30;15.50;99.90
14172;DHT22;7165;52.388;4.928;2023-08-06T02:08:57;15.50;99.90
14172;DHT22;7165;52.388;4.928;2023-08-06T02:11:23;15.50;99.90
14172;DHT22;7165;52.388;4.928;2023-08-06T02:13:51;15.50;99.90
14172;DHT22;7165;52.388;4.928;2023-08-06T02:16:18;15.50;99.90
14172;DHT22;7165;52.388;4.928;2023-08-06T02:18:45;15.50;99.90
14172;DHT22;7165;52.388;4.928;2023-08-06T02:21:11;15.50;99.90
14172;DHT22;7165;52.388;4.928;2023-08-06T02:23:38;15.50;99.90
14172;DHT22;7165;52.388;4.928;2023-08-06T02:26:05;15.40;99.90
14172;DHT22;7165;52.388;4.928;2023-08-06T02:28:32;15.50;99.90
14172;DHT22;7165;52.388;4.928;2023-08-06T02:31:00;15.50;99.90
14172;DHT22;7165;52.388;4.928;2023-08-06T02:33:26;15.50;99.90
14172;DHT22;7165;52.388;4.928;2023-08-06T02:35:59;15.50;99.90
14172;DHT22;7165;52.388;4.928;2023-08-06T02:38:26;15.50;99.90
14172;DHT22;7165;52.388;4.928;2023-08-06T02:40:53;15.50;99.90
14172;DHT22;7165;52.388;4.928;2023-08-06T02:43:20;15.50;99.90
14172;DHT22;7165;52.388;4.928;2023-08-06T02:45:47;15.50;99.90
14172;DHT22;7165;52.388;4.928;2023-08-06T02:48:15;15.50;99.90
14172;DHT22;7165;52.388;4.928;2023-08-06T02:50:43;15.40;99.90
14172;DHT22;7165;52.388;4.928;2023-08-06T02:53:10;15.40;99.90
14172;DHT22;7165;52.388;4.928;2023-08-06T02:55:37;15.40;99.90
14172;DHT22;7165;52.388;4.928;2023-08-06T02:58:03;15.40;99.90
14172;DHT22;7165;52.388;4.928;2023-08-06T03:00:30;15.30;99.90
14172;DHT22;7165;52.388;4.928;2023-08-06T03:02:57;15.30;99.90
14172;DHT22;7165;52.388;4.928;2023-08-06T03:05:25;15.30;99.90
14172;DHT22;7165;52.388;4.928;2023-08-06T03:07:52;15.30;99.90
14172;DHT22;7165;52.388;4.928;2023-08-06T03:10:18;15.30;99.90
14172;DHT22;7165;52.388;4.928;2023-08-06T03:12:45;15.30;99.90
14172;DHT22;7165;52.388;4.928;2023-08-06T03:15:12;15.20;99.90
14172;DHT22;7165;52.388;4.928;2023-08-06T03:17:39;15.20;99.90
14172;DHT22;7165;52.388;4.928;2023-08-06T03:20:06;15.20;99.90
14172;DHT22;7165;52.388;4.928;2023-08-06T03:22:34;15.20;99.90
14172;DHT22;7165;52.388;4.928;2023-08-06T03:25:01;15.20;99.90
14172;DHT22;7165;52.388;4.928;2023-08-06T03:27:28;15.20;99.90
14172;DHT22;7165;52.388;4.928;2023-08-06T03:29:55;15.20;99.90
14172;DHT22;7165;52.388;4.928;2023-08-06T03:32:21;15.20;99.90
14172;DHT22;7165;52.388;4.928;2023-08-06T03:34:48;15.20;99.90
14172;DHT22;7165;52.388;4.928;2023-08-06T03:37:15;15.20;99.90
14172;DHT22;7165;52.388;4.928;2023-08-06T03:39:43;15.20;99.90
14172;DHT22;7165;52.388;4.928;2023-08-06T03:42:09;15.10;99.90
14172;DHT22;7165;52.388;4.928;2023-08-06T03:44:36;15.10;99.90
14172;DHT22;7165;52.388;4.928;2023-08-06T03:47:03;15.10;99.90
14172;DHT22;7165;52.388;4.928;2023-08-06T03:49:30;15.10;99.90
14172;DHT22;7165;52.388;4.928;2023-08-06T03:51:57;15.10;99.90
14172;DHT22;7165;52.388;4.928;2023-08-06T03:54:29;15.10;99.90
14172;DHT22;7165;52.388;4.928;2023-08-06T03:56:57;15.10;99.90
14172;DHT22;7165;52.388;4.928;2023-08-06T03:59:24;15.10;99.90
14172;DHT22;7165;52.388;4.928;2023-08-06T04:01:51;15.10;99.90
14172;DHT22;7165;52.388;4.928;2023-08-06T04:04:18;15.10;99.90
14172;DHT22;7165;52.388;4.928;2023-08-06T04:06:44;15.10;99.90
14172;DHT22;7165;52.388;4.928;2023-08-06T04:09:11;15.10;99.90
14172;DHT22;7165;52.388;4.928;2023-08-06T04:11:38;15.10;99.90
14172;DHT22;7165;52.388;4.928;2023-08-06T04:14:06;15.10;99.90
14172;DHT22;7165;52.388;4.928;2023-08-06T04:16:33;15.10;99.90
14172;DHT22;7165;52.388;4.928;2023-08-06T04:19:00;15.10;99.90
14172;DHT22;7165;52.388;4.928;2023-08-06T04:21:26;15.10;99.90
14172;DHT22;7165;52.388;4.928;2023-08-06T04:23:53;15.10;99.90
14172;DHT22;7165;52.388;4.928;2023-08-06T04:26:20;15.10;99.90
14172;DHT22;7165;52.388;4.928;2023-08-06T04:28:46;15.10;99.90
14172;DHT22;7165;52.388;4.928;2023-08-06T04:31:15;15.10;99.90
14172;DHT22;7165;52.388;4.928;2023-08-06T04:33:42;15.10;99.90
14172;DHT22;7165;52.388;4.928;2023-08-06T04:36:09;15.10;99.90
14172;DHT22;7165;52.388;4.928;2023-08-06T04:38:35;15.10;99.90
14172;DHT22;7165;52.388;4.928;2023-08-06T04:41:02;15.10;99.90
14172;DHT22;7165;52.388;4.928;2023-08-06T04:43:29;15.10;99.90
14172;DHT22;7165;52.388;4.928;2023-08-06T04:45:56;15.00;99.90
14172;DHT22;7165;52.388;4.928;2023-08-06T04:48:24;15.00;99.90
14172;DHT22;7165;52.388;4.928;2023-08-06T04:50:51;15.00;99.90
14172;DHT22;7165;52.388;4.928;2023-08-06T04:53:17;15.00;99.90
14172;DHT22;7165;52.388;4.928;2023-08-06T04:55:44;15.00;99.90
14172;DHT22;7165;52.388;4.928;2023-08-06T04:58:12;14.90;99.90
14172;DHT22;7165;52.388;4.928;2023-08-06T05:00:38;14.80;99.90
14172;DHT22;7165;52.388;4.928;2023-08-06T05:03:06;14.80;99.90
14172;DHT22;7165;52.388;4.928;2023-08-06T05:05:34;14.80;99.90
14172;DHT22;7165;52.388;4.928;2023-08-06T05:08:01;14.80;99.90
14172;DHT22;7165;52.388;4.928;2023-08-06T05:10:27;14.80;99.90
14172;DHT22;7165;52.388;4.928;2023-08-06T05:12:54;14.80;99.90
14172;DHT22;7165;52.388;4.928;2023-08-06T05:15:21;14.80;99.90
14172;DHT22;7165;52.388;4.928;2023-08-06T05:17:50;14.80;99.90
14172;DHT22;7165;52.388;4.928;2023-08-06T05:20:17;14.80;99.90
14172;DHT22;7165;52.388;4.928;2023-08-06T05:22:45;14.80;99.90
14172;DHT22;7165;52.388;4.928;2023-08-06T05:25:13;14.80;99.90
14172;DHT22;7165;52.388;4.928;2023-08-06T05:27:40;14.80;99.90
14172;DHT22;7165;52.388;4.928;2023-08-06T05:30:08;14.80;99.90
14172;DHT22;7165;52.388;4.928;2023-08-06T05:32:35;14.80;99.90
14172;DHT22;7165;52.388;4.928;2023-08-06T05:35:01;14.80;99.90
14172;DHT22;7165;52.388;4.928;2023-08-06T05:37:28;14.80;99.90
14172;DHT22;7165;52.388;4.928;2023-08-06T05:39:56;14.80;99.90
14172;DHT22;7165;52.388;4.928;2023-08-06T05:42:23;14.80;99.90
14172;DHT22;7165;52.388;4.928;2023-08-06T05:44:49;14.80;99.90
14172;DHT22;7165;52.388;4.928;2023-08-06T05:47:16;14.80;99.90
14172;DHT22;7165;52.388;4.928;2023-08-06T05:49:45;14.80;99.90
14172;DHT22;7165;52.388;4.928;2023-08-06T05:52:11;14.80;99.90
14172;DHT22;7165;52.388;4.928;2023-08-06T05:54:38;14.80;99.90
14172;DHT22;7165;52.388;4.928;2023-08-06T05:57:07;14.80;99.90
14172;DHT22;7165;52.388;4.928;2023-08-06T05:59:35;14.80;99.90
14172;DHT22;7165;52.388;4.928;2023-08-06T06:02:01;14.80;99.90
14172;DHT22;7165;52.388;4.928;2023-08-06T06:04:28;14.80;99.90
14172;DHT22;7165;52.388;4.928;2023-08-06T06:06:55;14.80;99.90
14172;DHT22;7165;52.388;4.928;2023-08-06T06:09:22;14.80;99.90
14172;DHT22;7165;52.388;4.928;2023-08-06T06:11:48;14.80;99.90
14172;DHT22;7165;52.388;4.928;2023-08-06T06:14:17;14.70;99.90
14172;DHT22;7165;52.388;4.928;2023-08-06T06:16:44;14.70;99.90
14172;DHT22;7165;52.388;4.928;2023-08-06T06:19:10;14.70;99.90
14172;DHT22;7165;52.388;4.928;2023-08-06T06:21:37;14.70;99.90
14172;DHT22;7165;52.388;4.928;2023-08-06T06:24:04;14.70;99.90
14172;DHT22;7165;52.388;4.928;2023-08-06T06:26:31;14.60;99.90
14172;DHT22;7165;52.388;4.928;2023-08-06T06:28:58;14.60;99.90
14172;DHT22;7165;52.388;4.928;2023-08-06T06:31:26;14.60;99.90
14172;DHT22;7165;52.388;4.928;2023-08-06T06:33:53;14.50;99.90
14172;DHT22;7165;52.388;4.928;2023-08-06T06:36:20;14.50;99.90
14172;DHT22;7165;52.388;4.928;2023-08-06T06:38:46;14.40;99.90
14172;DHT22;7165;52.388;4.928;2023-08-06T06:41:14;14.40;99.90
14172;DHT22;7165;52.388;4.928;2023-08-06T06:43:41;14.30;99.90
14172;DHT22;7165;52.388;4.928;2023-08-06T06:46:08;14.30;99.90
14172;DHT22;7165;52.388;4.928;2023-08-06T06:48:36;14.30;99.90
14172;DHT22;7165;52.388;4.928;2023-08-06T06:51:03;14.20;99.90
14172;DHT22;7165;52.388;4.928;2023-08-06T06:53:29;14.20;99.90
14172;DHT22;7165;52.388;4.928;2023-08-06T06:56:00;14.20;99.90
14172;DHT22;7165;52.388;4.928;2023-08-06T06:58:28;14.20;99.90
14172;DHT22;7165;52.388;4.928;2023-08-06T07:00:54;14.20;99.90
14172;DHT22;7165;52.388;4.928;2023-08-06T07:03:21;14.20;99.90
14172;DHT22;7165;52.388;4.928;2023-08-06T07:05:49;14.30;99.90
14172;DHT22;7165;52.388;4.928;2023-08-06T07:08:16;14.30;99.90
14172;DHT22;7165;52.388;4.928;2023-08-06T07:10:43;14.30;99.90
14172;DHT22;7165;52.388;4.928;2023-08-06T07:13:10;14.30;99.90
14172;DHT22;7165;52.388;4.928;2023-08-06T07:15:37;14.30;99.90
14172;DHT22;7165;52.388;4.928;2023-08-06T07:18:04;14.40;99.90
14172;DHT22;7165;52.388;4.928;2023-08-06T07:20:30;14.40;99.90
14172;DHT22;7165;52.388;4.928;2023-08-06T07:23:00;14.40;99.90
14172;DHT22;7165;52.388;4.928;2023-08-06T07:25:27;14.50;99.90
14172;DHT22;7165;52.388;4.928;2023-08-06T07:27:54;14.50;99.90
14172;DHT22;7165;52.388;4.928;2023-08-06T07:30:22;14.50;99.90
14172;DHT22;7165;52.388;4.928;2023-08-06T07:32:48;14.60;99.90
14172;DHT22;7165;52.388;4.928;2023-08-06T07:35:15;14.60;99.90
14172;DHT22;7165;52.388;4.928;2023-08-06T07:37:42;14.60;99.90
14172;DHT22;7165;52.388;4.928;2023-08-06T07:40:11;14.70;99.90
14172;DHT22;7165;52.388;4.928;2023-08-06T07:42:37;14.70;99.90
14172;DHT22;7165;52.388;4.928;2023-08-06T07:45:06;14.70;99.90
14172;DHT22;7165;52.388;4.928;2023-08-06T07:47:33;14.80;99.90
14172;DHT22;7165;52.388;4.928;2023-08-06T07:50:00;14.80;99.90
14172;DHT22;7165;52.388;4.928;2023-08-06T07:52:26;14.90;99.90
14172;DHT22;7165;52.388;4.928;2023-08-06T07:54:53;14.90;99.90
14172;DHT22;7165;52.388;4.928;2023-08-06T07:57:21;14.90;99.90
14172;DHT22;7165;52.388;4.928;2023-08-06T07:59:48;15.00;99.90
14172;DHT22;7165;52.388;4.928;2023-08-06T08:02:14;15.00;99.90
14172;DHT22;7165;52.388;4.928;2023-08-06T08:04:41;15.00;99.90
14172;DHT22;7165;52.388;4.928;2023-08-06T08:07:09;15.00;99.90
14172;DHT22;7165;52.388;4.928;2023-08-06T08:09:36;15.10;99.90
14172;DHT22;7165;52.388;4.928;2023-08-06T08:12:03;15.10;99.90
14172;DHT22;7165;52.388;4.928;2023-08-06T08:14:31;15.10;99.90
14172;DHT22;7165;52.388;4.928;2023-08-06T08:17:01;15.10;99.90
14172;DHT22;7165;52.388;4.928;2023-08-06T08:19:27;15.10;99.90
14172;DHT22;7165;52.388;4.928;2023-08-06T08:21:54;15.10;99.90
14172;DHT22;7165;52.388;4.928;2023-08-06T08:24:21;15.10;99.90
14172;DHT22;7165;52.388;4.928;2023-08-06T08:26:49;15.10;99.90
14172;DHT22;7165;52.388;4.928;2023-08-06T08:29:16;15.10;99.90
14172;DHT22;7165;52.388;4.928;2023-08-06T08:31:44;15.10;99.90
14172;DHT22;7165;52.388;4.928;2023-08-06T08:34:11;15.10;99.90
14172;DHT22;7165;52.388;4.928;2023-08-06T08:36:37;15.20;99.90
14172;DHT22;7165;52.388;4.928;2023-08-06T08:39:04;15.20;99.90
14172;DHT22;7165;52.388;4.928;2023-08-06T08:41:31;15.20;99.90
14172;DHT22;7165;52.388;4.928;2023-08-06T08:43:59;15.20;99.90
14172;DHT22;7165;52.388;4.928;2023-08-06T08:46:28;15.20;99.90
14172;DHT22;7165;52.388;4.928;2023-08-06T08:48:57;15.30;99.90
14172;DHT22;7165;52.388;4.928;2023-08-06T08:51:25;15.30;99.90
14172;DHT22;7165;52.388;4.928;2023-08-06T08:53:54;15.30;99.90
14172;DHT22;7165;52.388;4.928;2023-08-06T08:56:23;15.30;99.90
14172;DHT22;7165;52.388;4.928;2023-08-06T08:58:49;15.20;99.90
14172;DHT22;7165;52.388;4.928;2023-08-06T09:01:19;15.20;99.90
14172;DHT22;7165;52.388;4.928;2023-08-06T09:03:47;15.20;99.90
14172;DHT22;7165;52.388;4.928;2023-08-06T09:06:16;15.20;99.90
14172;DHT22;7165;52.388;4.928;2023-08-06T09:08:47;15.20;99.90
14172;DHT22;7165;52.388;4.928;2023-08-06T09:11:17;15.10;99.90
14172;DHT22;7165;52.388;4.928;2023-08-06T09:13:46;15.10;99.90
14172;DHT22;7165;52.388;4.928;2023-08-06T09:16:13;15.10;99.90
14172;DHT22;7165;52.388;4.928;2023-08-06T09:18:40;15.10;99.90
14172;DHT22;7165;52.388;4.928;2023-08-06T09:21:14;15.10;99.90
14172;DHT22;7165;52.388;4.928;2023-08-06T09:23:42;15.20;99.90
14172;DHT22;7165;52.388;4.928;2023-08-06T09:26:11;15.20;99.90
14172;DHT22;7165;52.388;4.928;2023-08-06T09:28:39;15.20;99.90
14172;DHT22;7165;52.388;4.928;2023-08-06T09:31:08;15.20;99.90
14172;DHT22;7165;52.388;4.928;2023-08-06T09:33:36;15.30;99.90
14172;DHT22;7165;52.388;4.928;2023-08-06T09:36:10;15.30;99.90
14172;DHT22;7165;52.388;4.928;2023-08-06T09:38:41;15.30;99.90
14172;DHT22;7165;52.388;4.928;2023-08-06T09:41:08;15.30;99.90
14172;DHT22;7165;52.388;4.928;2023-08-06T09:43:40;15.40;99.90
14172;DHT22;7165;52.388;4.928;2023-08-06T09:46:11;15.40;99.90
14172;DHT22;7165;52.388;4.928;2023-08-06T09:48:39;15.40;99.90
14172;DHT22;7165;52.388;4.928;2023-08-06T09:51:08;15.40;99.90
14172;DHT22;7165;52.388;4.928;2023-08-06T09:53:36;15.40;99.90
14172;DHT22;7165;52.388;4.928;2023-08-06T09:56:05;15.40;99.90
14172;DHT22;7165;52.388;4.928;2023-08-06T09:58:32;15.40;99.90
14172;DHT22;7165;52.388;4.928;2023-08-06T10:01:00;15.40;99.90
14172;DHT22;7165;52.388;4.928;2023-08-06T10:03:29;15.50;99.90
14172;DHT22;7165;52.388;4.928;2023-08-06T10:05:58;15.40;99.90
14172;DHT22;7165;52.388;4.928;2023-08-06T10:08:27;15.40;99.90
14172;DHT22;7165;52.388;4.928;2023-08-06T10:10:54;15.40;99.90
14172;DHT22;7165;52.388;4.928;2023-08-06T10:13:24;15.40;99.90
14172;DHT22;7165;52.388;4.928;2023-08-06T10:15:52;15.40;99.90
14172;DHT22;7165;52.388;4.928;2023-08-06T10:18:19;15.40;99.90
14172;DHT22;7165;52.388;4.928;2023-08-06T10:20:48;15.50;99.90
14172;DHT22;7165;52.388;4.928;2023-08-06T10:23:14;15.50;99.90
14172;DHT22;7165;52.388;4.928;2023-08-06T10:25:43;15.50;99.90
14172;DHT22;7165;52.388;4.928;2023-08-06T10:28:10;15.50;99.90
14172;DHT22;7165;52.388;4.928;2023-08-06T10:30:44;15.50;99.90
14172;DHT22;7165;52.388;4.928;2023-08-06T10:33:11;15.50;99.90
14172;DHT22;7165;52.388;4.928;2023-08-06T10:35:40;15.60;99.90
14172;DHT22;7165;52.388;4.928;2023-08-06T10:38:09;15.50;99.90
14172;DHT22;7165;52.388;4.928;2023-08-06T10:40:37;15.60;99.90
14172;DHT22;7165;52.388;4.928;2023-08-06T10:43:05;15.60;99.90
14172;DHT22;7165;52.388;4.928;2023-08-06T10:45:37;15.60;99.90
14172;DHT22;7165;52.388;4.928;2023-08-06T10:48:06;15.60;99.90
14172;DHT22;7165;52.388;4.928;2023-08-06T10:50:33;15.60;99.90
14172;DHT22;7165;52.388;4.928;2023-08-06T10:53:04;15.70;99.90
14172;DHT22;7165;52.388;4.928;2023-08-06T10:55:32;15.70;99.90
14172;DHT22;7165;52.388;4.928;2023-08-06T10:57:59;15.70;99.90
14172;DHT22;7165;52.388;4.928;2023-08-06T11:00:25;15.80;99.90
14172;DHT22;7165;52.388;4.928;2023-08-06T11:02:53;15.80;99.90
14172;DHT22;7165;52.388;4.928;2023-08-06T11:05:21;15.90;99.90
14172;DHT22;7165;52.388;4.928;2023-08-06T11:07:48;15.90;99.90
14172;DHT22;7165;52.388;4.928;2023-08-06T11:10:16;15.90;99.90
14172;DHT22;7165;52.388;4.928;2023-08-06T11:12:43;15.90;99.90
14172;DHT22;7165;52.388;4.928;2023-08-06T11:15:10;15.90;99.90
14172;DHT22;7165;52.388;4.928;2023-08-06T11:17:37;16.00;99.90
14172;DHT22;7165;52.388;4.928;2023-08-06T11:20:06;16.00;99.90
14172;DHT22;7165;52.388;4.928;2023-08-06T11:22:36;16.10;99.90
14172;DHT22;7165;52.388;4.928;2023-08-06T11:25:03;16.10;99.90
14172;DHT22;7165;52.388;4.928;2023-08-06T11:27:29;16.20;99.90
14172;DHT22;7165;52.388;4.928;2023-08-06T11:29:56;16.20;99.90
14172;DHT22;7165;52.388;4.928;2023-08-06T11:32:23;16.20;99.90
14172;DHT22;7165;52.388;4.928;2023-08-06T11:34:50;16.30;99.90
14172;DHT22;7165;52.388;4.928;2023-08-06T11:37:20;16.30;99.90
14172;DHT22;7165;52.388;4.928;2023-08-06T11:39:49;16.40;99.90
14172;DHT22;7165;52.388;4.928;2023-08-06T11:42:16;16.50;99.90
14172;DHT22;7165;52.388;4.928;2023-08-06T11:44:43;16.60;99.90
14172;DHT22;7165;52.388;4.928;2023-08-06T11:47:13;16.80;99.90
14172;DHT22;7165;52.388;4.928;2023-08-06T11:49:41;16.90;99.90
14172;DHT22;7165;52.388;4.928;2023-08-06T11:52:20;17.00;99.90
14172;DHT22;7165;52.388;4.928;2023-08-06T11:55:00;17.00;99.90
14172;DHT22;7165;52.388;4.928;2023-08-06T11:57:29;17.10;99.90
14172;DHT22;7165;52.388;4.928;2023-08-06T11:59:58;17.30;99.90
14172;DHT22;7165;52.388;4.928;2023-08-06T12:02:31;17.30;99.90
14172;DHT22;7165;52.388;4.928;2023-08-06T12:05:01;17.30;99.90
14172;DHT22;7165;52.388;4.928;2023-08-06T12:07:29;17.30;99.90
14172;DHT22;7165;52.388;4.928;2023-08-06T12:09:57;17.30;99.90
14172;DHT22;7165;52.388;4.928;2023-08-06T12:12:24;17.30;99.90
14172;DHT22;7165;52.388;4.928;2023-08-06T12:14:51;17.40;99.90
14172;DHT22;7165;52.388;4.928;2023-08-06T12:17:18;17.40;99.90
14172;DHT22;7165;52.388;4.928;2023-08-06T12:19:45;17.40;99.90
14172;DHT22;7165;52.388;4.928;2023-08-06T12:22:12;17.40;99.90
14172;DHT22;7165;52.388;4.928;2023-08-06T12:24:40;17.40;99.90
14172;DHT22;7165;52.388;4.928;2023-08-06T12:27:08;17.50;99.90
14172;DHT22;7165;52.388;4.928;2023-08-06T12:29:34;17.40;99.90
14172;DHT22;7165;52.388;4.928;2023-08-06T12:32:01;17.40;99.90
14172;DHT22;7165;52.388;4.928;2023-08-06T12:34:28;17.40;99.90
14172;DHT22;7165;52.388;4.928;2023-08-06T12:36:55;17.40;99.90
14172;DHT22;7165;52.388;4.928;2023-08-06T12:39:21;17.40;99.90
14172;DHT22;7165;52.388;4.928;2023-08-06T12:41:48;17.50;99.90
14172;DHT22;7165;52.388;4.928;2023-08-06T12:44:16;17.70;99.90
14172;DHT22;7165;52.388;4.928;2023-08-06T12:46:43;17.70;99.90
14172;DHT22;7165;52.388;4.928;2023-08-06T12:49:10;17.80;99.90
14172;DHT22;7165;52.388;4.928;2023-08-06T12:51:37;17.80;99.90
14172;DHT22;7165;52.388;4.928;2023-08-06T12:54:04;17.80;99.90
14172;DHT22;7165;52.388;4.928;2023-08-06T12:56:30;17.70;99.90
14172;DHT22;7165;52.388;4.928;2023-08-06T12:58:57;17.70;99.90
14172;DHT22;7165;52.388;4.928;2023-08-06T13:01:25;17.70;99.90
14172;DHT22;7165;52.388;4.928;2023-08-06T13:03:52;17.80;99.90
14172;DHT22;7165;52.388;4.928;2023-08-06T13:06:18;17.90;99.90
14172;DHT22;7165;52.388;4.928;2023-08-06T13:08:45;18.00;99.90
14172;DHT22;7165;52.388;4.928;2023-08-06T13:11:12;18.00;99.90
14172;DHT22;7165;52.388;4.928;2023-08-06T13:13:39;18.10;99.90
14172;DHT22;7165;52.388;4.928;2023-08-06T13:16:05;18.10;99.90
14172;DHT22;7165;52.388;4.928;2023-08-06T13:18:33;18.00;99.90
14172;DHT22;7165;52.388;4.928;2023-08-06T13:21:00;17.90;99.90
14172;DHT22;7165;52.388;4.928;2023-08-06T13:23:27;17.80;99.90
14172;DHT22;7165;52.388;4.928;2023-08-06T13:25:53;17.70;99.90
14172;DHT22;7165;52.388;4.928;2023-08-06T13:28:21;17.70;99.90
14172;DHT22;7165;52.388;4.928;2023-08-06T13:30:47;17.70;99.90
14172;DHT22;7165;52.388;4.928;2023-08-06T13:33:14;17.70;99.90
14172;DHT22;7165;52.388;4.928;2023-08-06T13:35:42;17.70;99.90
14172;DHT22;7165;52.388;4.928;2023-08-06T13:38:09;17.70;99.90
14172;DHT22;7165;52.388;4.928;2023-08-06T13:40:36;17.70;99.90
14172;DHT22;7165;52.388;4.928;2023-08-06T13:43:02;17.70;99.90
14172;DHT22;7165;52.388;4.928;2023-08-06T13:45:29;17.60;99.90
14172;DHT22;7165;52.388;4.928;2023-08-06T13:47:57;17.60;99.90
14172;DHT22;7165;52.388;4.928;2023-08-06T13:50:24;17.60;99.90
14172;DHT22;7165;52.388;4.928;2023-08-06T13:52:53;17.70;99.90
14172;DHT22;7165;52.388;4.928;2023-08-06T13:55:21;17.70;99.90
14172;DHT22;7165;52.388;4.928;2023-08-06T13:57:48;17.80;99.90
14172;DHT22;7165;52.388;4.928;2023-08-06T14:00:14;17.80;99.90
14172;DHT22;7165;52.388;4.928;2023-08-06T14:02:41;17.80;99.90
14172;DHT22;7165;52.388;4.928;2023-08-06T14:05:09;17.70;99.90
14172;DHT22;7165;52.388;4.928;2023-08-06T14:07:36;17.70;99.90
14172;DHT22;7165;52.388;4.928;2023-08-06T14:10:05;17.60;99.90
14172;DHT22;7165;52.388;4.928;2023-08-06T14:12:32;17.50;99.90
14172;DHT22;7165;52.388;4.928;2023-08-06T14:14:59;17.40;99.90
14172;DHT22;7165;52.388;4.928;2023-08-06T14:17:25;17.40;99.90
14172;DHT22;7165;52.388;4.928;2023-08-06T14:19:52;17.40;99.90
14172;DHT22;7165;52.388;4.928;2023-08-06T14:22:19;17.50;99.90
14172;DHT22;7165;52.388;4.928;2023-08-06T14:24:46;17.50;99.90
14172;DHT22;7165;52.388;4.928;2023-08-06T14:27:14;17.50;99.90
14172;DHT22;7165;52.388;4.928;2023-08-06T14:29:41;17.40;99.90
14172;DHT22;7165;52.388;4.928;2023-08-06T14:32:08;17.40;99.90
14172;DHT22;7165;52.388;4.928;2023-08-06T14:34:34;17.40;99.90
14172;DHT22;7165;52.388;4.928;2023-08-06T14:37:01;17.40;99.90
14172;DHT22;7165;52.388;4.928;2023-08-06T14:39:28;17.40;99.90
14172;DHT22;7165;52.388;4.928;2023-08-06T14:41:55;17.40;99.90
14172;DHT22;7165;52.388;4.928;2023-08-06T14:44:23;17.30;99.90
14172;DHT22;7165;52.388;4.928;2023-08-06T14:46:49;17.30;99.90
14172;DHT22;7165;52.388;4.928;2023-08-06T14:49:16;17.30;99.90
14172;DHT22;7165;52.388;4.928;2023-08-06T14:51:43;17.40;99.90
14172;DHT22;7165;52.388;4.928;2023-08-06T14:54:09;17.50;99.90
14172;DHT22;7165;52.388;4.928;2023-08-06T14:56:36;17.50;99.90
14172;DHT22;7165;52.388;4.928;2023-08-06T14:59:03;17.50;99.90
14172;DHT22;7165;52.388;4.928;2023-08-06T15:01:31;17.40;99.90
14172;DHT22;7165;52.388;4.928;2023-08-06T15:03:58;17.30;99.90
14172;DHT22;7165;52.388;4.928;2023-08-06T15:06:25;17.20;99.90
14172;DHT22;7165;52.388;4.928;2023-08-06T15:08:52;17.20;99.90
14172;DHT22;7165;52.388;4.928;2023-08-06T15:11:23;17.10;99.90
14172;DHT22;7165;52.388;4.928;2023-08-06T15:13:50;17.00;99.90
14172;DHT22;7165;52.388;4.928;2023-08-06T15:16:16;17.00;99.90
14172;DHT22;7165;52.388;4.928;2023-08-06T15:18:44;16.90;99.90
14172;DHT22;7165;52.388;4.928;2023-08-06T15:21:11;16.80;99.90
14172;DHT22;7165;52.388;4.928;2023-08-06T15:23:38;16.70;99.90
14172;DHT22;7165;52.388;4.928;2023-08-06T15:26:04;16.70;99.90
14172;DHT22;7165;52.388;4.928;2023-08-06T15:28:31;16.80;99.90
14172;DHT22;7165;52.388;4.928;2023-08-06T15:30:58;16.80;99.90
14172;DHT22;7165;52.388;4.928;2023-08-06T15:33:25;16.90;99.90
14172;DHT22;7165;52.388;4.928;2023-08-06T15:35:53;16.90;99.90
14172;DHT22;7165;52.388;4.928;2023-08-06T15:38:19;16.90;99.90
14172;DHT22;7165;52.388;4.928;2023-08-06T15:40:46;17.00;99.90
14172;DHT22;7165;52.388;4.928;2023-08-06T15:43:13;17.00;99.90
14172;DHT22;7165;52.388;4.928;2023-08-06T15:45:39;17.00;99.90